createdAt,value
2023-03-28T00:03:29.966Z,7.70
2023-03-28T00:09:33.273Z,7.70
2023-03-28T00:15:38.277Z,7.60
2023-03-28T00:21:47.464Z,7.50
2023-03-28T00:27:49.912Z,7.40
2023-03-28T00:33:53.208Z,7.40
2023-03-28T00:39:55.651Z,7.30
2023-03-28T00:46:08.666Z,7.30
2023-03-28T00:52:16.043Z,7.10
2023-03-28T00:58:25.345Z,6.90
2023-03-28T01:04:37.287Z,6.70
2023-03-28T01:10:41.762Z,6.60
2023-03-28T01:16:48.178Z,6.40
2023-03-28T01:23:18.673Z,6.40
2023-03-28T01:29:39.487Z,6.30
2023-03-28T01:36:08.820Z,6.20
2023-03-28T01:42:44.522Z,6.10
2023-03-28T01:48:55.088Z,6.00
2023-03-28T01:55:12.982Z,5.90
2023-03-28T02:01:23.417Z,5.80
2023-03-28T02:07:29.219Z,5.80
2023-03-28T02:13:46.890Z,5.80
2023-03-28T02:20:12.228Z,5.90
2023-03-28T02:26:41.453Z,6.00
2023-03-28T02:32:59.746Z,6.10
2023-03-28T02:39:02.243Z,6.30
2023-03-28T02:45:07.443Z,6.30
2023-03-28T02:51:14.186Z,6.40
2023-03-28T02:57:33.263Z,6.40
2023-03-28T03:03:38.256Z,6.30
2023-03-28T03:09:41.019Z,6.30
2023-03-28T03:15:43.215Z,6.20
2023-03-28T03:21:55.803Z,6.10
2023-03-28T03:27:58.246Z,6.10
2023-03-28T03:40:08.614Z,5.90
2023-03-28T03:46:14.407Z,5.80
2023-03-28T03:52:16.840Z,5.80
2023-03-28T03:58:20.447Z,5.80
2023-03-28T04:04:25.268Z,5.80
2023-03-28T04:10:56.638Z,5.80
2023-03-28T04:16:59.348Z,5.80
2023-03-28T04:23:06.244Z,5.80
2023-03-28T04:29:11.045Z,5.80
2023-03-28T04:35:16.897Z,5.80
2023-03-28T04:41:26.704Z,5.90
2023-03-28T04:47:41.466Z,5.80
2023-03-28T04:53:51.271Z,5.90
2023-03-28T05:00:29.276Z,5.90
2023-03-28T05:06:37.829Z,6.00
2023-03-28T05:12:40.877Z,6.10
2023-03-28T05:18:43.846Z,6.20
2023-03-28T05:24:47.024Z,6.30
2023-03-28T05:30:55.525Z,6.30
2023-03-28T05:36:58.253Z,6.30
2023-03-28T05:43:04.093Z,6.20
2023-03-28T05:49:08.117Z,6.30
2023-03-28T05:55:10.935Z,6.30
2023-03-28T06:01:19.182Z,6.30
2023-03-28T06:07:39.424Z,6.40
2023-03-28T06:13:46.460Z,6.40
2023-03-28T06:19:50.083Z,6.40
2023-03-28T06:25:53.336Z,6.50
2023-03-28T06:31:57.319Z,6.50
2023-03-28T06:38:00.208Z,6.50
2023-03-28T06:44:02.724Z,6.40
2023-03-28T06:50:31.314Z,6.40
2023-03-28T06:56:37.489Z,6.30
2023-03-28T07:02:40.768Z,6.10
2023-03-28T07:08:45.660Z,6.10
2023-03-28T07:14:49.744Z,6.10
2023-03-28T07:21:03.132Z,6.20
2023-03-28T07:27:15.477Z,6.40
2023-03-28T07:33:33.290Z,6.60
2023-03-28T07:39:40.680Z,6.70
2023-03-28T07:45:48.125Z,6.70
2023-03-28T07:51:50.590Z,6.70
2023-03-28T07:57:53.575Z,6.80
2023-03-28T08:04:05.743Z,6.60
2023-03-28T08:10:22.311Z,6.60
2023-03-28T08:16:26.343Z,6.70
2023-03-28T08:22:28.980Z,6.60
2023-03-28T08:28:55.146Z,6.60
2023-03-28T08:34:59.015Z,6.80
2023-03-28T08:41:38.545Z,6.90
2023-03-28T08:47:50.058Z,7.00
2023-03-28T08:54:17.196Z,6.90
2023-03-28T09:00:24.632Z,7.00
2023-03-28T09:06:33.563Z,7.10
2023-03-28T09:13:04.801Z,6.90
2023-03-28T09:19:37.006Z,6.90
2023-03-28T09:26:08.963Z,6.80
2023-03-28T09:32:31.033Z,6.80
2023-03-28T09:38:38.356Z,7.00
2023-03-28T09:44:54.355Z,7.20
2023-03-28T09:51:23.931Z,7.40
2023-03-28T09:57:27.835Z,7.50
2023-03-28T10:03:35.505Z,7.50
2023-03-28T10:09:54.877Z,7.40
2023-03-28T10:16:00.233Z,7.40
2023-03-28T10:22:38.084Z,7.60
2023-03-28T10:28:44.122Z,8.10
2023-03-28T10:35:01.227Z,8.60
2023-03-28T10:41:32.896Z,8.60
2023-03-28T10:47:57.598Z,8.80
2023-03-28T10:54:06.340Z,9.00
2023-03-28T11:00:35.707Z,9.00
2023-03-28T11:06:50.070Z,9.10
2023-03-28T11:13:16.814Z,9.10
2023-03-28T11:19:42.124Z,9.20
2023-03-28T11:26:04.759Z,9.20
2023-03-28T11:32:52.119Z,9.00
2023-03-28T11:39:03.042Z,9.10
2023-03-28T11:45:30.650Z,9.00
2023-03-28T11:51:53.564Z,8.80
2023-03-28T11:58:05.685Z,8.70
2023-03-28T12:04:32.322Z,9.00
2023-03-28T12:10:37.340Z,9.20
2023-03-28T12:17:21.436Z,9.40
2023-03-28T12:23:38.142Z,9.50
2023-03-28T12:30:25.055Z,9.50
2023-03-28T12:36:49.645Z,9.20
2023-03-28T12:42:56.795Z,9.40
2023-03-28T12:49:13.112Z,9.40
2023-03-28T12:55:25.123Z,9.80
2023-03-28T13:01:59.962Z,9.70
2023-03-28T13:08:48.940Z,9.90
2023-03-28T13:15:13.837Z,9.60
2023-03-28T13:22:01.264Z,9.40
2023-03-28T13:28:13.098Z,9.40
2023-03-28T13:34:24.089Z,9.40
2023-03-28T13:40:48.693Z,9.30
2023-03-28T13:46:55.041Z,9.00
2023-03-28T13:52:57.895Z,8.90
2023-03-28T13:59:03.862Z,8.90
2023-03-28T14:05:20.383Z,9.00
2023-03-28T14:11:30.691Z,9.10
2023-03-28T14:17:36.768Z,9.00
2023-03-28T14:23:41.902Z,9.00
2023-03-28T14:29:59.183Z,8.80
2023-03-28T14:36:04.285Z,8.70
2023-03-28T14:42:15.765Z,8.70
2023-03-28T14:48:23.853Z,8.50
2023-03-28T14:54:41.920Z,8.30
2023-03-28T15:00:47.236Z,8.20
2023-03-28T15:06:57.027Z,8.10
2023-03-28T15:13:05.208Z,8.10
2023-03-28T15:19:18.846Z,8.10
2023-03-28T15:25:22.376Z,8.00
2023-03-28T15:31:25.947Z,7.90
2023-03-28T15:37:28.723Z,7.50
2023-03-28T15:43:41.922Z,6.70
2023-03-28T15:49:44.928Z,5.70
2023-03-28T15:55:49.958Z,5.10
2023-03-28T16:02:18.168Z,4.70
2023-03-28T16:08:34.478Z,4.60
2023-03-28T16:14:37.053Z,4.60
2023-03-28T16:21:11.881Z,4.60
2023-03-28T16:27:14.123Z,4.60
2023-03-28T16:33:17.509Z,4.60
2023-03-28T16:39:19.964Z,4.60
2023-03-28T16:45:24.141Z,4.70
2023-03-28T16:51:26.977Z,4.60
2023-03-28T16:57:29.548Z,4.60
2023-03-28T17:03:32.724Z,4.70
2023-03-28T17:09:35.236Z,4.80
2023-03-28T17:15:37.685Z,4.80
2023-03-28T17:21:40.073Z,4.80
2023-03-28T17:27:42.241Z,4.70
2023-03-28T17:33:45.626Z,4.60
2023-03-28T17:39:48.057Z,4.50
2023-03-28T17:45:54.764Z,4.60
2023-03-28T17:51:57.745Z,4.60
2023-03-28T17:58:00.117Z,4.60
2023-03-28T18:04:02.676Z,4.60
2023-03-28T18:10:09.295Z,4.50
2023-03-28T18:16:14.593Z,4.60
2023-03-28T18:22:17.210Z,4.70
2023-03-28T18:28:26.801Z,4.70
2023-03-28T18:34:29.373Z,4.80
2023-03-28T18:40:32.127Z,4.80
2023-03-28T18:46:34.731Z,4.80
2023-03-28T18:52:37.928Z,4.80
2023-03-28T18:58:40.438Z,4.80
2023-03-28T19:04:42.971Z,4.80
2023-03-28T19:10:46.228Z,4.80
2023-03-28T19:16:48.869Z,4.70
2023-03-28T19:22:51.312Z,4.60
2023-03-28T19:28:54.034Z,4.50
2023-03-28T19:34:56.868Z,4.40
2023-03-28T19:41:00.856Z,4.40
2023-03-28T19:47:03.738Z,4.30
2023-03-28T19:53:06.055Z,4.10
2023-03-28T19:59:08.637Z,4.00
2023-03-28T20:05:11.056Z,3.90
2023-03-28T20:11:14.649Z,3.90
2023-03-28T20:17:17.480Z,3.80
2023-03-28T20:23:22.943Z,3.70
2023-03-28T20:29:25.324Z,3.60
2023-03-28T20:35:28.275Z,3.60
2023-03-28T20:41:30.601Z,3.50
2023-03-28T20:47:32.909Z,3.40
2023-03-28T20:53:35.286Z,3.30
2023-03-28T20:59:40.868Z,3.30
2023-03-28T21:05:45.271Z,3.20
2023-03-28T21:11:47.641Z,3.20
2023-03-28T21:17:53.837Z,3.20
2023-03-28T21:23:57.391Z,3.10
2023-03-28T21:30:04.256Z,3.10
2023-03-28T21:36:08.441Z,3.00
2023-03-28T21:42:10.648Z,2.90
2023-03-28T21:48:13.217Z,2.80
2023-03-28T21:54:15.958Z,2.70
2023-03-28T22:00:21.001Z,2.60
2023-03-28T22:06:23.186Z,2.60
2023-03-28T22:12:26.241Z,2.50
2023-03-28T22:18:30.887Z,2.40
2023-03-28T22:24:33.520Z,2.30
2023-03-28T22:30:37.705Z,2.30
2023-03-28T22:36:40.098Z,2.30
2023-03-28T22:42:42.547Z,2.30
2023-03-28T22:48:45.155Z,2.40
2023-03-28T22:54:47.443Z,2.40
2023-03-28T23:00:50.430Z,2.40
2023-03-28T23:06:54.095Z,2.30
2023-03-28T23:12:57.041Z,2.40
2023-03-28T23:19:00.413Z,2.40
2023-03-28T23:25:03.317Z,2.30
2023-03-28T23:31:07.049Z,2.20
2023-03-28T23:37:10.416Z,2.10
2023-03-28T23:43:12.981Z,2.10
2023-03-28T23:49:15.314Z,2.10
2023-03-28T23:55:17.897Z,2.00
